createdAt,value
2023-02-09T06:41:02.448Z,-9.29
2023-02-09T06:43:32.616Z,-9.44
2023-02-09T06:46:08.711Z,-9.46
2023-02-09T06:48:38.860Z,-9.43
2023-02-09T06:51:12.484Z,-9.30
2023-02-09T06:53:41.029Z,-9.08
2023-02-09T06:56:10.351Z,-8.83
2023-02-09T06:58:42.632Z,-8.60
2023-02-09T07:01:13.443Z,-8.46
2023-02-09T07:03:45.126Z,-8.49
2023-02-09T07:06:15.386Z,-8.45
2023-02-09T07:08:47.218Z,-8.25
2023-02-09T07:11:16.686Z,-8.03
2023-02-09T07:13:46.702Z,-7.75
2023-02-09T07:16:15.409Z,-7.46
2023-02-09T07:18:47.018Z,-7.26
2023-02-09T07:21:20.174Z,-7.16
2023-02-09T07:23:49.522Z,-7.05
2023-02-09T07:26:18.653Z,-6.91
2023-02-09T07:28:47.291Z,-6.76
2023-02-09T07:31:16.678Z,-6.61
2023-02-09T07:33:48.456Z,-6.50
2023-02-09T07:36:16.927Z,-6.41
2023-02-09T07:38:45.369Z,-6.29
2023-02-09T07:41:21.500Z,-6.13
2023-02-09T07:43:51.080Z,-5.91
2023-02-09T07:46:42.023Z,-5.76
2023-02-09T07:49:11.368Z,-5.70
2023-02-09T07:51:39.717Z,-5.59
2023-02-09T07:54:10.526Z,-5.48
2023-02-09T07:56:39.183Z,-5.41
2023-02-09T07:59:09.365Z,-5.37
2023-02-09T08:01:37.623Z,-5.27
2023-02-09T08:04:06.479Z,-5.22
2023-02-09T08:06:43.149Z,-5.20
2023-02-09T08:09:30.039Z,-5.19
2023-02-09T08:12:05.731Z,-5.07
2023-02-09T08:14:40.035Z,-4.94
2023-02-09T08:17:20.336Z,-5.00
2023-02-09T08:20:00.639Z,-5.02
2023-02-09T08:22:34.628Z,-4.88
2023-02-09T08:25:06.472Z,-4.75
2023-02-09T08:27:56.590Z,-4.67
2023-02-09T08:30:25.603Z,-4.49
2023-02-09T08:32:55.588Z,-4.29
2023-02-09T08:35:24.174Z,-4.16
2023-02-09T08:37:53.971Z,-4.02
2023-02-09T08:40:22.299Z,-3.91
2023-02-09T08:42:50.851Z,-3.86
2023-02-09T08:45:19.596Z,-3.85
2023-02-09T08:47:49.092Z,-3.76
2023-02-09T08:50:18.204Z,-3.61
2023-02-09T08:52:48.250Z,-3.37
2023-02-09T08:55:16.548Z,-3.00
2023-02-09T08:57:45.534Z,-2.59
2023-02-09T09:00:20.298Z,-2.24
2023-02-09T09:02:48.655Z,-1.97
2023-02-09T09:05:35.522Z,-1.93
2023-02-09T09:08:06.561Z,-2.00
2023-02-09T09:10:54.014Z,-1.96
2023-02-09T09:13:24.617Z,-1.84
2023-02-09T09:15:54.451Z,-1.66
2023-02-09T09:21:12.723Z,-1.37
2023-02-09T09:23:41.090Z,-1.29
2023-02-09T09:26:09.568Z,-1.11
2023-02-09T09:28:37.983Z,-0.87
2023-02-09T09:31:33.721Z,-0.54
2023-02-09T09:34:04.159Z,-0.21
2023-02-09T09:36:33.076Z,-0.03
2023-02-09T09:39:25.860Z,0.29
2023-02-09T09:41:58.167Z,0.62
2023-02-09T09:44:44.230Z,0.84
2023-02-09T09:47:21.030Z,1.09
2023-02-09T09:52:38.958Z,1.24
2023-02-09T09:55:08.355Z,1.41
2023-02-09T09:57:38.866Z,1.58
2023-02-09T10:00:19.712Z,1.49
2023-02-09T10:02:48.320Z,1.54
2023-02-09T10:05:26.521Z,1.44
2023-02-09T10:08:11.037Z,1.54
2023-02-09T10:11:06.376Z,1.78
2023-02-09T10:13:56.875Z,1.94
2023-02-09T10:16:30.955Z,2.12
2023-02-09T10:19:04.288Z,2.19
2023-02-09T10:21:34.912Z,2.06
2023-02-09T10:24:15.036Z,1.88
2023-02-09T10:26:44.413Z,1.75
2023-02-09T10:29:13.017Z,1.56
2023-02-09T10:31:48.962Z,1.59
2023-02-09T10:34:19.540Z,1.71
2023-02-09T10:36:56.611Z,1.68
2023-02-09T10:39:34.447Z,1.69
2023-02-09T10:42:19.596Z,1.79
2023-02-09T10:44:50.144Z,1.81
2023-02-09T10:47:21.333Z,1.93
2023-02-09T10:50:11.413Z,2.18
2023-02-09T10:53:03.372Z,2.25
2023-02-09T10:55:52.005Z,2.35
2023-02-09T10:58:25.070Z,2.49
2023-02-09T11:01:08.946Z,2.59
2023-02-09T11:03:39.156Z,2.65
2023-02-09T11:06:18.842Z,2.67
2023-02-09T11:09:06.155Z,2.49
2023-02-09T11:11:51.518Z,2.50
2023-02-09T11:14:45.484Z,2.61
2023-02-09T11:17:27.303Z,2.95
2023-02-09T11:20:10.138Z,3.26
2023-02-09T11:22:57.237Z,3.48
2023-02-09T11:25:48.609Z,3.78
2023-02-09T11:28:45.386Z,4.26
2023-02-09T11:31:36.437Z,4.65
2023-02-09T11:34:42.634Z,4.98
2023-02-09T11:37:30.394Z,5.34
2023-02-09T11:40:18.795Z,5.69
2023-02-09T11:43:15.596Z,6.06
2023-02-09T11:45:58.835Z,6.28
2023-02-09T11:48:39.375Z,6.35
2023-02-09T11:51:20.091Z,6.22
2023-02-09T11:53:49.510Z,6.26
2023-02-09T11:56:20.202Z,6.46
2023-02-09T12:01:52.514Z,7.31
2023-02-09T12:04:26.993Z,7.57
2023-02-09T12:07:21.622Z,7.71
2023-02-09T12:10:00.409Z,7.99
2023-02-09T12:12:28.792Z,8.30
2023-02-09T12:15:34.840Z,8.44
2023-02-09T12:18:13.536Z,8.59
2023-02-09T12:20:54.470Z,8.43
2023-02-09T12:23:53.575Z,7.85
2023-02-09T12:26:41.337Z,7.02
2023-02-09T12:29:39.104Z,6.75
2023-02-09T12:32:08.148Z,6.60
2023-02-09T12:34:41.314Z,6.37
2023-02-09T12:37:18.199Z,5.97
2023-02-09T12:40:18.509Z,5.74
2023-02-09T12:42:56.155Z,5.68
2023-02-09T12:45:36.311Z,5.89
2023-02-09T12:48:11.734Z,6.02
2023-02-09T12:50:44.289Z,6.06
2023-02-09T12:53:28.453Z,5.74
2023-02-09T12:56:28.285Z,5.36
2023-02-09T12:59:14.445Z,5.06
2023-02-09T13:02:08.230Z,4.90
2023-02-09T13:04:52.125Z,5.00
2023-02-09T13:07:34.194Z,5.15
2023-02-09T13:10:36.302Z,5.12
2023-02-09T13:16:29.860Z,4.81
2023-02-09T13:19:48.026Z,4.83
2023-02-09T13:22:39.819Z,4.41
2023-02-09T13:25:34.916Z,3.73
2023-02-09T13:28:17.238Z,3.36
2023-02-09T13:30:47.322Z,3.22
2023-02-09T13:34:07.336Z,3.24
2023-02-09T13:36:47.408Z,3.17
2023-02-09T13:39:25.004Z,3.12
2023-02-09T13:41:54.794Z,3.38
2023-02-09T13:44:30.773Z,3.89
2023-02-09T13:47:07.160Z,4.49
2023-02-09T13:49:37.888Z,4.99
2023-02-09T13:52:33.491Z,5.33
2023-02-09T13:55:23.474Z,5.52
2023-02-09T13:58:18.137Z,5.46
2023-02-09T14:04:20.919Z,4.49
2023-02-09T14:07:01.857Z,4.34
2023-02-09T14:09:50.980Z,4.29
2023-02-09T14:12:55.637Z,4.18
2023-02-09T14:15:56.782Z,4.07
2023-02-09T14:18:29.329Z,3.89
2023-02-09T14:21:03.761Z,3.87
2023-02-09T14:23:35.250Z,4.05
2023-02-09T14:29:25.485Z,4.25
2023-02-09T14:31:57.965Z,4.33
2023-02-09T14:34:36.076Z,4.53
2023-02-09T14:37:23.077Z,4.75
2023-02-09T14:40:14.206Z,4.83
2023-02-09T14:43:26.138Z,4.82
2023-02-09T14:46:08.431Z,4.62
2023-02-09T14:48:37.552Z,4.23
2023-02-09T14:51:14.025Z,4.07
2023-02-09T14:53:43.711Z,4.01
2023-02-09T14:56:30.689Z,3.95
2023-02-09T14:59:05.566Z,3.73
2023-02-09T15:01:35.065Z,3.43
2023-02-09T15:04:03.784Z,3.19
2023-02-09T15:06:35.156Z,2.90
2023-02-09T15:09:23.356Z,2.60
2023-02-09T15:12:27.021Z,2.24
2023-02-09T15:14:58.795Z,1.62
2023-02-09T15:17:29.479Z,1.05
2023-02-09T15:19:58.047Z,0.56
2023-02-09T15:25:30.460Z,-0.32
2023-02-09T15:28:00.649Z,-0.62
2023-02-09T15:30:32.408Z,-0.86
2023-02-09T15:33:03.933Z,-1.03
2023-02-09T15:35:32.368Z,-1.16
2023-02-09T15:38:01.349Z,-1.26
2023-02-09T15:40:49.810Z,-1.36
2023-02-09T15:43:38.578Z,-1.47
2023-02-09T15:46:07.582Z,-1.57
2023-02-09T15:48:37.067Z,-1.63
2023-02-09T15:51:05.450Z,-1.73
2023-02-09T15:53:34.541Z,-1.84
2023-02-09T15:56:03.037Z,-1.94
2023-02-09T15:58:36.086Z,-2.03
2023-02-09T16:01:04.999Z,-2.07
2023-02-09T16:03:33.591Z,-2.06
2023-02-09T16:06:12.309Z,-2.07
2023-02-09T16:08:40.382Z,-2.09
2023-02-09T16:11:15.741Z,-2.13
2023-02-09T16:13:51.698Z,-2.14
2023-02-09T16:16:20.197Z,-2.13
2023-02-09T16:18:48.530Z,-2.13
2023-02-09T16:21:22.329Z,-2.16
2023-02-09T16:23:52.252Z,-2.21
2023-02-09T16:26:21.110Z,-2.24
2023-02-09T16:31:57.329Z,-2.28
2023-02-09T16:34:25.805Z,-2.34
2023-02-09T16:36:53.998Z,-2.44
2023-02-09T16:39:22.471Z,-2.55
2023-02-09T16:41:51.029Z,-2.64
2023-02-09T16:44:19.644Z,-2.71
2023-02-09T16:46:50.188Z,-2.77
2023-02-09T16:49:40.658Z,-2.81
2023-02-09T16:52:17.703Z,-2.79
2023-02-09T16:54:48.766Z,-2.75
2023-02-09T16:57:19.515Z,-2.75
2023-02-09T16:59:47.893Z,-2.77
2023-02-09T17:02:28.864Z,-2.78
2023-02-09T17:05:20.761Z,-2.78
2023-02-09T17:08:22.448Z,-2.80
2023-02-09T17:10:52.046Z,-2.84
2023-02-09T17:13:23.306Z,-2.91
2023-02-09T17:18:42.542Z,-3.15
2023-02-09T17:21:27.136Z,-3.22
2023-02-09T17:23:55.383Z,-3.23
2023-02-09T17:26:24.327Z,-3.22
2023-02-09T17:28:52.891Z,-3.23
2023-02-09T17:31:26.696Z,-3.26
2023-02-09T17:34:00.034Z,-3.29
2023-02-09T17:36:29.592Z,-3.29
2023-02-09T17:38:59.193Z,-3.24
2023-02-09T17:41:32.730Z,-3.19
2023-02-09T17:44:24.309Z,-3.15
2023-02-09T17:46:57.234Z,-3.15
2023-02-09T17:49:28.447Z,-3.14
2023-02-09T17:51:56.970Z,-3.12
2023-02-09T17:54:25.505Z,-3.09
2023-02-09T17:56:53.683Z,-3.06
2023-02-09T17:59:21.817Z,-3.04
2023-02-09T18:01:50.515Z,-3.03
2023-02-09T18:04:39.703Z,-3.03
2023-02-09T18:07:09.507Z,-3.06
2023-02-09T18:09:37.650Z,-3.14
2023-02-09T18:15:29.466Z,-3.20
2023-02-09T18:17:57.914Z,-3.22
2023-02-09T18:20:33.456Z,-3.22
2023-02-09T18:23:02.864Z,-3.20
2023-02-09T18:25:49.873Z,-3.20
2023-02-09T18:28:18.522Z,-3.23
2023-02-09T18:30:46.788Z,-3.31
2023-02-09T18:33:15.114Z,-3.37
2023-02-09T18:35:44.758Z,-3.41
2023-02-09T18:38:14.090Z,-3.42
2023-02-09T18:43:31.387Z,-3.45
2023-02-09T18:46:01.221Z,-3.48
2023-02-09T18:51:33.885Z,-3.59
2023-02-09T18:54:04.600Z,-3.62
2023-02-09T18:56:32.667Z,-3.63
2023-02-09T19:04:36.154Z,-3.79
2023-02-09T19:07:06.445Z,-3.81
2023-02-09T19:09:36.444Z,-3.85
2023-02-09T19:12:08.308Z,-3.90
2023-02-09T19:14:56.754Z,-3.95
2023-02-09T19:17:25.038Z,-3.97
2023-02-09T19:19:57.199Z,-3.97
2023-02-09T19:22:25.547Z,-3.98
2023-02-09T19:24:55.829Z,-3.99
2023-02-09T19:27:26.251Z,-4.01
2023-02-09T19:29:55.831Z,-4.01
2023-02-09T19:32:24.924Z,-4.03
2023-02-09T19:34:53.713Z,-4.03
2023-02-09T19:37:22.738Z,-4.05
2023-02-09T19:40:00.503Z,-4.07
2023-02-09T19:42:45.998Z,-4.05
2023-02-09T19:45:15.185Z,-4.07
2023-02-09T19:47:44.069Z,-4.10
2023-02-09T19:50:12.350Z,-4.13
2023-02-09T19:55:29.900Z,-4.12
2023-02-09T19:57:58.120Z,-4.11
2023-02-09T20:00:26.375Z,-4.12
2023-02-09T20:02:54.722Z,-4.13
2023-02-09T20:05:23.622Z,-4.14
2023-02-09T20:07:54.558Z,-4.10
2023-02-09T20:10:24.062Z,-4.10
2023-02-09T20:12:52.152Z,-4.07
2023-02-09T20:15:24.081Z,-4.05
2023-02-09T20:17:52.564Z,-4.04
2023-02-09T20:20:20.842Z,-4.05
2023-02-09T20:22:50.549Z,-4.09
2023-02-09T20:25:19.041Z,-4.15
2023-02-09T20:27:48.862Z,-4.25
2023-02-09T20:30:17.320Z,-4.36
2023-02-09T20:35:49.096Z,-4.58
2023-02-09T20:38:17.496Z,-4.65
2023-02-09T20:40:46.435Z,-4.73
2023-02-09T20:43:51.099Z,-4.80
2023-02-09T20:46:42.329Z,-4.81
2023-02-09T20:49:12.619Z,-4.80
2023-02-09T20:51:41.113Z,-4.81
2023-02-09T20:54:09.471Z,-4.81
2023-02-09T20:56:39.611Z,-4.82
2023-02-09T20:59:08.088Z,-4.82
2023-02-09T21:01:38.416Z,-4.84
2023-02-09T21:04:07.631Z,-4.89
2023-02-09T21:06:37.441Z,-4.92
2023-02-09T21:09:06.372Z,-4.96
2023-02-09T21:11:34.866Z,-4.98
2023-02-09T21:14:03.075Z,-5.00
2023-02-09T21:16:31.442Z,-5.04
2023-02-09T21:19:00.127Z,-5.06
2023-02-09T21:21:46.121Z,-5.08
2023-02-09T21:24:14.450Z,-5.09
2023-02-09T21:26:43.100Z,-5.09
2023-02-09T21:29:12.869Z,-5.09
2023-02-09T21:31:41.558Z,-5.10
2023-02-09T21:34:20.109Z,-5.13
2023-02-09T21:36:48.790Z,-5.15
2023-02-09T21:39:17.162Z,-5.16
2023-02-09T21:42:04.028Z,-5.18
2023-02-09T21:44:32.857Z,-5.20
2023-02-09T21:47:01.337Z,-5.22
2023-02-09T21:49:31.908Z,-5.27
2023-02-09T21:52:00.454Z,-5.32
2023-02-09T21:54:33.275Z,-5.37
2023-02-09T21:57:19.126Z,-5.42
2023-02-09T21:59:47.737Z,-5.47
2023-02-09T22:02:19.396Z,-5.48
2023-02-09T22:04:47.913Z,-5.51
2023-02-09T22:07:16.334Z,-5.54
2023-02-09T22:09:45.213Z,-5.56
2023-02-09T22:12:13.727Z,-5.58
2023-02-09T22:14:41.960Z,-5.58
2023-02-09T22:17:10.336Z,-5.58
2023-02-09T22:19:38.622Z,-5.60
2023-02-09T22:22:07.091Z,-5.62
2023-02-09T22:24:36.051Z,-5.62
2023-02-09T22:27:04.767Z,-5.61
2023-02-09T22:29:34.563Z,-5.62
2023-02-09T22:32:02.885Z,-5.64
2023-02-09T22:34:31.241Z,-5.63
2023-02-09T22:37:17.124Z,-5.65
2023-02-09T22:42:32.925Z,-5.70
2023-02-09T22:45:01.139Z,-5.75
2023-02-09T22:47:29.681Z,-5.85
2023-02-09T22:52:47.624Z,-5.99
2023-02-09T22:55:15.892Z,-6.02
2023-02-09T22:57:47.882Z,-6.05
2023-02-09T23:00:17.080Z,-6.05
2023-02-09T23:02:45.470Z,-6.05
2023-02-09T23:05:13.621Z,-6.02
2023-02-09T23:07:45.495Z,-6.00
2023-02-09T23:10:13.976Z,-5.96
2023-02-09T23:12:42.761Z,-5.94
2023-02-09T23:17:57.900Z,-5.93
2023-02-09T23:20:26.086Z,-5.93
2023-02-09T23:22:56.435Z,-5.92
2023-02-09T23:25:24.941Z,-5.90
2023-02-09T23:27:53.227Z,-5.88
2023-02-09T23:30:21.615Z,-5.84
2023-02-09T23:32:54.378Z,-5.80
2023-02-09T23:35:24.384Z,-5.78
2023-02-09T23:37:52.700Z,-5.79
2023-02-09T23:40:20.956Z,-5.81
2023-02-09T23:42:53.217Z,-5.83
2023-02-09T23:45:21.384Z,-5.84
2023-02-09T23:47:49.754Z,-5.82
2023-02-09T23:50:18.639Z,-5.79
2023-02-09T23:52:47.015Z,-5.74
2023-02-09T23:55:18.267Z,-5.72
2023-02-09T23:57:48.284Z,-5.72
